Time;durP1;ratioP1;P1;durP2;ratioP2;P2;SDS_P1;SDS_P2;PMS_P1;PMS_P2;Temp;Humidity;BMP_temperature;BMP_pressure;BME280_temperature;BME280_humidity;BME280_pressure;Samples;Min_cycle;Max_cycle;Signal;HPM_P1;HPM_P2
2022/05/03 00:01:47;;;;;;;4.55;2.75;;;;;;;10.13;55.30;98856.13;5015787;28;20056;-74
2022/05/03 00:04:14;;;;;;;3.75;2.60;;;;;;;10.07;55.44;98854.72;4999643;28;20452;-74
2022/05/03 00:06:56;;;;;;;6.60;3.17;;;;;;;10.07;55.64;98843.63;5015633;28;20049;-74
2022/05/03 00:10:15;;;;;;;4.82;3.15;;;;;;;10.01;56.22;98847.75;5015850;28;20049;-74
2022/05/03 00:12:47;;;;;;;4.60;2.83;;;;;;;9.94;56.21;98841.94;5008781;28;20089;-74
2022/05/03 00:15:18;;;;;;;7.03;2.33;;;;;;;9.97;56.03;98846.78;5015472;28;20046;-74
2022/05/03 00:17:45;;;;;;;6.47;2.85;;;;;;;9.92;56.70;98838.72;5001481;28;20080;-75
2022/05/03 00:20:13;;;;;;;4.28;2.47;;;;;;;9.95;56.73;98844.38;4994764;28;20604;-75
2022/05/03 00:22:41;;;;;;;6.00;3.22;;;;;;;9.94;56.15;98833.59;4995648;28;20054;-75
2022/05/03 00:25:09;;;;;;;6.82;2.80;;;;;;;9.92;56.70;98835.94;4997012;28;20054;-75
2022/05/03 00:27:37;;;;;;;5.40;2.67;;;;;;;9.91;56.82;98831.50;5014198;28;20050;-74
2022/05/03 00:30:06;;;;;;;4.28;2.70;;;;;;;9.91;57.19;98825.94;4997789;28;20050;-66
2022/05/03 00:32:34;;;;;;;4.90;2.63;;;;;;;9.91;57.18;98831.50;4995868;28;20133;-65
2022/05/03 00:35:02;;;;;;;4.57;2.85;;;;;;;9.91;57.17;98829.56;4995731;28;20064;-66
2022/05/03 00:37:29;;;;;;;6.25;3.25;;;;;;;9.86;57.28;98823.41;4995674;28;20050;-66
2022/05/03 00:39:56;;;;;;;7.85;2.60;;;;;;;9.80;58.08;98825.59;4995304;28;20413;-66
2022/05/03 00:42:47;;;;;;;4.47;2.80;;;;;;;9.81;58.38;98826.41;4995470;28;20064;-66
2022/05/03 00:45:23;;;;;;;6.63;3.10;;;;;;;9.78;58.27;98824.31;4995108;28;20140;-66
2022/05/03 00:48:17;;;;;;;18.63;3.58;;;;;;;9.75;58.48;98811.94;4995294;28;20494;-66
2022/05/03 00:50:59;;;;;;;12.57;3.58;;;;;;;9.74;58.66;98813.09;5005802;28;20576;-66
2022/05/03 00:53:38;;;;;;;11.15;3.92;;;;;;;9.75;58.61;98811.94;5014534;28;20523;-65
2022/05/03 00:56:07;;;;;;;13.35;3.22;;;;;;;9.75;58.31;98808.34;5014432;28;20053;-65
2022/05/03 00:58:52;;;;;;;5.33;3.27;;;;;;;9.74;58.46;98803.97;5014558;28;20129;-64
2022/05/03 01:01:31;;;;;;;5.35;2.88;;;;;;;9.70;58.75;98803.84;5014943;28;20136;-65
2022/05/03 01:04:08;;;;;;;6.13;2.65;;;;;;;9.71;58.84;98805.44;5014517;28;20053;-65
2022/05/03 01:06:53;;;;;;;5.22;3.28;;;;;;;9.73;59.24;98810.66;5005912;28;20054;-65
2022/05/03 01:09:35;;;;;;;6.95;3.20;;;;;;;9.66;59.16;98804.88;4993782;28;20096;-65
2022/05/03 01:12:16;;;;;;;4.82;3.35;;;;;;;9.61;60.03;98796.75;4994929;28;20064;-66
2022/05/03 01:15:01;;;;;;;5.95;2.95;;;;;;;9.50;59.96;98795.59;4994626;28;20054;-65
2022/05/03 01:17:45;;;;;;;6.22;3.30;;;;;;;9.47;60.50;98783.19;4993564;28;20130;-65
2022/05/03 01:20:17;;;;;;;6.30;3.42;;;;;;;9.44;60.01;98788.63;4994586;28;20069;-65
2022/05/03 01:22:52;;;;;;;5.05;3.28;;;;;;;9.45;60.38;98795.81;4994660;28;20108;-65
2022/05/03 01:25:52;;;;;;;5.10;3.08;;;;;;;9.38;60.25;98792.78;4997162;28;20049;-65
2022/05/03 01:28:28;;;;;;;6.82;3.33;;;;;;;9.30;60.55;98784.19;5012654;28;20068;-66
2022/05/03 01:31:03;;;;;;;5.60;3.17;;;;;;;9.30;60.55;98770.31;5013992;28;20136;-65
2022/05/03 01:33:34;;;;;;;5.82;3.53;;;;;;;9.35;60.99;98768.50;5014112;28;20497;-65
2022/05/03 01:36:02;;;;;;;9.38;3.47;;;;;;;9.31;61.03;98773.91;5014113;28;20132;-65
2022/05/03 01:38:51;;;;;;;6.03;3.72;;;;;;;9.21;60.84;98755.72;5014173;28;20548;-70
2022/05/03 01:41:31;;;;;;;5.25;3.10;;;;;;;9.23;60.69;98758.97;5013854;28;20517;-70
2022/05/03 01:44:01;;;;;;;6.25;3.45;;;;;;;9.25;61.35;98765.00;5012345;28;20049;-70
2022/05/03 01:46:31;;;;;;;5.38;3.05;;;;;;;9.27;60.77;98773.78;5013834;28;20191;-71
2022/05/03 01:51:49;;;;;;;5.95;3.33;;;;;;;9.29;60.59;98759.56;5013749;28;20501;-70
2022/05/03 01:54:16;;;;;;;8.77;3.38;;;;;;;9.29;60.76;98767.88;5013399;28;20049;-71
2022/05/03 01:57:17;;;;;;;4.43;3.15;;;;;;;9.25;61.45;98765.00;5013626;28;20073;-70
2022/05/03 02:00:06;;;;;;;13.40;3.65;;;;;;;9.23;61.49;98767.28;5013534;28;20509;-70
2022/05/03 02:02:51;;;;;;;6.30;3.63;;;;;;;9.23;61.30;98756.19;5013123;28;20061;-70
2022/05/03 02:05:44;;;;;;;5.13;3.30;;;;;;;9.28;61.72;98764.31;5013159;28;20136;-70
2022/05/03 02:08:17;;;;;;;7.25;3.97;;;;;;;9.29;61.34;98749.28;5003751;28;20525;-65
2022/05/03 02:11:09;;;;;;;6.55;3.80;;;;;;;9.38;60.99;98762.25;4993756;28;20057;-65
2022/05/03 02:16:53;;;;;;;8.50;3.55;;;;;;;9.41;61.82;98767.13;4993899;28;20401;-65
2022/05/03 02:19:44;;;;;;;7.88;3.65;;;;;;;9.43;62.02;98762.84;4992981;28;20050;-65
2022/05/03 02:22:31;;;;;;;4.75;3.55;;;;;;;9.45;61.96;98756.94;4993800;28;20117;-65
2022/05/03 02:25:17;;;;;;;4.50;2.95;;;;;;;9.45;62.22;98751.38;4993355;28;20050;-65
2022/05/03 02:27:56;;;;;;;6.53;3.60;;;;;;;9.40;61.76;98748.81;4993674;28;20468;-65
2022/05/03 02:30:27;;;;;;;4.85;3.20;;;;;;;9.40;61.91;98755.19;4993403;28;20509;-65
2022/05/03 02:33:04;;;;;;;5.18;3.17;;;;;;;9.37;62.29;98750.31;4993226;28;20053;-66
2022/05/03 02:35:34;;;;;;;5.13;3.08;;;;;;;9.37;61.98;98744.78;4993734;28;20050;-65
2022/05/03 02:38:06;;;;;;;8.17;3.43;;;;;;;9.38;62.01;98740.03;4993096;28;20046;-66
2022/05/03 02:40:33;;;;;;;5.38;3.10;;;;;;;9.42;61.82;98741.78;5008244;28;20050;-65
2022/05/03 02:43:01;;;;;;;5.22;3.35;;;;;;;9.46;62.00;98739.13;4993098;28;20078;-65
2022/05/03 02:45:32;;;;;;;4.88;3.08;;;;;;;9.50;61.91;98737.28;4993313;28;20043;-65
2022/05/03 02:48:21;;;;;;;4.80;3.25;;;;;;;9.50;62.20;98737.28;4993295;28;20077;-65
2022/05/03 02:50:55;;;;;;;5.30;3.10;;;;;;;9.48;61.82;98739.59;4993325;28;20046;-66
2022/05/03 02:53:43;;;;;;;8.52;3.05;;;;;;;9.51;61.90;98730.56;4993479;28;20470;-65
2022/05/03 02:56:37;;;;;;;4.50;2.78;;;;;;;9.51;61.96;98733.34;4992844;28;20076;-65
2022/05/03 03:02:48;;;;;;;6.80;3.58;;;;;;;9.57;62.12;98723.63;4993178;28;20498;-66
2022/05/03 03:05:19;;;;;;;8.57;3.50;;;;;;;9.59;62.03;98724.91;4992845;28;20413;-66
2022/05/03 03:07:55;;;;;;;6.30;3.33;;;;;;;9.65;61.64;98717.16;4999092;28;20579;-66
2022/05/03 03:10:49;;;;;;;5.40;3.28;;;;;;;9.68;62.09;98717.28;5012855;28;20560;-66
2022/05/03 03:13:47;;;;;;;5.05;3.28;;;;;;;9.69;61.58;98723.66;5012768;28;20073;-66
2022/05/03 03:16:20;;;;;;;6.45;3.75;;;;;;;9.81;61.50;98724.47;5012647;28;20064;-66
2022/05/03 03:18:52;;;;;;;7.18;3.30;;;;;;;10.02;61.05;98719.59;5012541;28;20046;-66
2022/05/03 03:21:24;;;;;;;8.02;3.85;;;;;;;10.22;60.98;98726.19;5012650;28;20519;-65
2022/05/03 03:23:52;;;;;;;5.80;3.30;;;;;;;10.39;60.42;98721.16;5012379;28;20145;-65
2022/05/03 03:26:22;;;;;;;8.63;3.40;;;;;;;10.53;59.70;98716.03;5011052;28;20480;-65
2022/05/03 03:28:52;;;;;;;6.38;3.38;;;;;;;10.56;60.06;98703.38;5012177;28;20046;-65
2022/05/03 03:31:21;;;;;;;4.57;3.08;;;;;;;10.59;60.00;98713.81;5013286;28;20527;-65
2022/05/03 03:33:49;;;;;;;6.00;3.28;;;;;;;10.71;59.53;98709.03;5016160;28;20049;-65
2022/05/03 03:36:17;;;;;;;5.32;3.35;;;;;;;10.79;60.17;98704.47;5016677;28;20072;-65
2022/05/03 03:38:47;;;;;;;5.47;3.38;;;;;;;10.88;59.24;98710.69;5015992;28;20046;-65
2022/05/03 03:41:14;;;;;;;5.25;3.05;;;;;;;11.01;59.03;98701.09;5016461;28;20133;-66
2022/05/03 03:43:46;;;;;;;6.53;3.25;;;;;;;11.28;57.91;98703.03;4996506;28;20046;-66
2022/05/03 03:46:13;;;;;;;5.53;3.25;;;;;;;11.49;57.97;98703.59;4996218;28;20060;-65
2022/05/03 03:48:40;;;;;;;6.10;3.17;;;;;;;11.63;57.76;98703.97;4996257;28;20046;-66
2022/05/03 03:51:08;;;;;;;7.00;3.25;;;;;;;11.76;57.04;98704.72;4996606;28;20054;-66
2022/05/03 03:53:37;;;;;;;8.70;3.70;;;;;;;11.70;56.69;98690.25;4978677;28;20093;-65
2022/05/03 03:56:05;;;;;;;6.63;3.20;;;;;;;11.76;56.65;98688.00;4996014;28;20506;-66
2022/05/03 03:58:33;;;;;;;5.35;2.92;;;;;;;11.80;56.95;98698.06;5014697;28;20136;-66
2022/05/03 04:01:00;;;;;;;5.13;3.58;;;;;;;11.73;56.73;98703.47;5015776;28;20058;-65
2022/05/03 04:03:28;;;;;;;5.80;3.30;;;;;;;11.69;56.29;98687.81;5015645;28;20081;-65
2022/05/03 04:05:55;;;;;;;7.95;3.40;;;;;;;11.73;56.59;98692.31;5016067;28;20060;-65
2022/05/03 04:08:24;;;;;;;5.82;3.10;;;;;;;11.92;55.74;98689.59;5015417;28;20056;-66
2022/05/03 04:10:51;;;;;;;11.07;3.65;;;;;;;11.90;56.00;98680.78;5015628;28;20129;-65
2022/05/03 04:13:18;;;;;;;4.57;3.08;;;;;;;11.99;55.66;98686.97;5014223;28;20045;-65
2022/05/03 04:15:45;;;;;;;7.88;3.20;;;;;;;12.11;55.80;98680.47;5014795;28;20065;-65
2022/05/03 04:18:12;;;;;;;5.53;3.58;;;;;;;12.21;55.11;98680.72;5015364;28;20045;-65
2022/05/03 04:20:39;;;;;;;5.57;3.42;;;;;;;12.33;55.39;98677.78;5015757;28;20064;-65
2022/05/03 04:23:06;;;;;;;7.40;3.35;;;;;;;12.42;54.88;98674.78;5015099;28;20087;-66
2022/05/03 04:25:33;;;;;;;5.68;3.55;;;;;;;12.45;55.02;98680.44;5015628;28;20046;-65
2022/05/03 04:28:00;;;;;;;6.03;3.72;;;;;;;12.39;55.26;98676.34;5015291;28;20053;-66
2022/05/03 04:30:27;;;;;;;5.88;3.58;;;;;;;12.42;55.15;98675.59;5015266;28;20049;-65
2022/05/03 04:32:55;;;;;;;6.93;3.55;;;;;;;12.56;54.40;98675.88;5015030;28;20096;-65
2022/05/03 04:35:22;;;;;;;5.82;3.47;;;;;;;12.63;54.22;98669.66;5015166;28;20076;-65
2022/05/03 04:37:49;;;;;;;7.32;3.45;;;;;;;12.77;54.12;98667.94;5015160;28;20057;-65
2022/05/03 04:40:15;;;;;;;8.60;3.95;;;;;;;12.98;53.79;98667.59;5014698;28;20145;-65
2022/05/03 04:42:44;;;;;;;13.68;3.55;;;;;;;13.15;52.83;98657.94;5014840;28;20046;-65
2022/05/03 04:45:11;;;;;;;5.65;3.45;;;;;;;13.23;52.88;98660.50;5014949;28;20077;-65
2022/05/03 04:47:38;;;;;;;5.45;3.35;;;;;;;13.42;52.54;98662.44;5015158;28;20054;-65
2022/05/03 04:50:06;;;;;;;6.82;3.60;;;;;;;13.47;52.26;98662.13;5014526;28;20425;-65
2022/05/03 04:52:33;;;;;;;6.70;3.63;;;;;;;13.42;52.38;98656.84;5014917;28;20513;-66
2022/05/03 04:55:00;;;;;;;6.15;4.00;;;;;;;13.51;52.16;98657.41;5014393;28;20072;-65
2022/05/03 04:57:28;;;;;;;14.02;4.38;;;;;;;13.66;52.02;98656.47;5014722;28;20054;-65
2022/05/03 04:59:55;;;;;;;8.50;4.00;;;;;;;13.85;51.56;98654.38;5014632;28;20069;-65
2022/05/03 05:02:22;;;;;;;4.63;3.42;;;;;;;13.90;51.28;98644.88;5014678;28;20141;-65
2022/05/03 05:04:49;;;;;;;7.82;4.57;;;;;;;14.11;50.86;98645.19;5014568;28;20140;-66
2022/05/03 05:07:16;;;;;;;10.15;3.80;;;;;;;14.29;50.19;98651.84;5014175;28;20050;-65
2022/05/03 05:10:23;;;;;;;10.75;3.85;;;;;;;14.38;50.08;98650.41;5014145;28;20054;-65
2022/05/03 05:12:30;;;;;;;7.82;4.53;;;;;;;14.57;49.80;98641.06;5014138;28;20541;-65
2022/05/03 05:14:57;;;;;;;12.02;3.95;;;;;;;14.64;49.65;98635.53;5014073;28;20050;-65
2022/05/03 05:17:24;;;;;;;6.60;3.78;;;;;;;14.72;49.62;98642.84;5014411;28;20140;-65
2022/05/03 05:19:51;;;;;;;9.25;3.60;;;;;;;14.90;48.98;98649.47;5014085;28;20069;-66
2022/05/03 05:22:19;;;;;;;6.63;4.05;;;;;;;14.82;49.19;98641.34;5014109;28;20084;-65
2022/05/03 05:24:46;;;;;;;9.25;3.83;;;;;;;14.69;49.12;98638.00;5014236;28;20136;-66
2022/05/03 05:27:13;;;;;;;5.78;3.45;;;;;;;14.84;49.05;98634.19;5014575;28;20066;-71
2022/05/03 05:29:40;;;;;;;5.78;3.70;;;;;;;14.82;48.88;98625.34;5013958;28;20136;-71
2022/05/03 05:32:07;;;;;;;6.78;3.75;;;;;;;14.88;48.26;98625.81;5014375;28;20497;-71
2022/05/03 05:34:35;;;;;;;4.47;3.17;;;;;;;15.28;48.24;98626.63;5013986;28;20050;-70
2022/05/03 05:37:02;;;;;;;8.77;4.72;;;;;;;15.65;47.13;98623.78;5013873;28;20509;-71
2022/05/03 05:39:29;;;;;;;7.63;3.53;;;;;;;16.02;46.36;98627.28;5013846;28;20048;-70
2022/05/03 05:41:58;;;;;;;11.20;3.83;;;;;;;16.27;46.08;98623.44;5013596;28;20045;-71
2022/05/03 05:44:26;;;;;;;4.25;3.08;;;;;;;16.47;46.11;98609.94;5013526;28;20050;-71
2022/05/03 05:46:53;;;;;;;9.93;3.90;;;;;;;17.27;44.68;98611.38;5014021;28;20061;-72
2022/05/03 05:49:20;;;;;;;5.30;3.30;;;;;;;18.27;42.17;98600.50;5013588;28;20050;-72
2022/05/03 05:51:47;;;;;;;8.32;3.95;;;;;;;19.81;39.32;98599.66;5013775;28;20058;-71
2022/05/03 05:54:17;;;;;;;5.90;3.25;;;;;;;20.61;37.45;98590.78;5012953;28;20057;-72
2022/05/03 05:56:45;;;;;;;8.93;3.90;;;;;;;19.74;38.50;98596.91;5013726;28;20058;-71
2022/05/03 05:59:11;;;;;;;6.13;3.40;;;;;;;19.56;38.35;98603.91;5012095;28;20045;-71
2022/05/03 06:01:40;;;;;;;7.95;4.00;;;;;;;19.38;38.65;98595.59;5013276;28;20053;-71
2022/05/03 06:04:08;;;;;;;9.80;3.05;;;;;;;20.43;36.48;98585.34;5013241;28;20080;-71
2022/05/03 06:06:36;;;;;;;7.57;3.15;;;;;;;20.91;35.42;98573.84;5013560;28;20049;-71
2022/05/03 06:09:03;;;;;;;6.30;3.45;;;;;;;23.14;32.28;98584.44;5013048;28;20049;-71
2022/05/03 06:11:31;;;;;;;5.80;3.55;;;;;;;22.83;32.58;98581.03;5013516;28;20045;-72
2022/05/03 06:13:58;;;;;;;8.82;3.55;;;;;;;23.10;32.00;98583.72;5013029;28;20053;-72
2022/05/03 06:16:25;;;;;;;6.60;3.20;;;;;;;24.43;29.77;98582.44;5013626;28;20050;-72
2022/05/03 06:18:53;;;;;;;6.53;3.67;;;;;;;25.22;28.82;98576.91;5013255;28;20050;-72
2022/05/03 06:21:20;;;;;;;5.80;3.30;;;;;;;25.89;27.82;98564.94;5013094;28;20053;-72
2022/05/03 06:23:47;;;;;;;5.40;3.05;;;;;;;24.57;29.62;98570.69;5013154;28;20045;-71
2022/05/03 06:26:14;;;;;;;6.25;3.38;;;;;;;23.66;30.59;98573.09;5013284;28;20064;-71
2022/05/03 06:28:44;;;;;;;6.55;3.30;;;;;;;24.89;29.02;98564.88;5012885;28;20062;-71
2022/05/03 06:31:11;;;;;;;13.02;3.95;;;;;;;27.59;25.51;98555.31;5013218;28;20080;-71
2022/05/03 06:33:39;;;;;;;4.75;2.90;;;;;;;26.80;25.88;98550.25;5013066;28;20133;-72
2022/05/03 06:36:13;;;;;;;7.80;3.30;;;;;;;26.92;25.84;98562.09;5013048;28;20050;-73
2022/05/03 06:38:40;;;;;;;4.65;3.03;;;;;;;28.03;24.47;98555.94;5012984;28;20046;-71
2022/05/03 06:41:08;;;;;;;6.00;2.90;;;;;;;28.12;24.19;98553.09;5012859;28;20585;-72
2022/05/03 06:43:35;;;;;;;5.35;3.22;;;;;;;27.02;24.94;98552.34;5012959;28;20412;-71
2022/05/03 06:46:03;;;;;;;5.20;2.88;;;;;;;24.97;27.55;98552.03;5013000;28;20046;-71
2022/05/03 06:48:30;;;;;;;5.90;3.45;;;;;;;24.79;27.78;98555.44;5012760;28;20054;-72
2022/05/03 06:50:57;;;;;;;7.75;3.60;;;;;;;24.14;28.25;98554.00;5011662;28;20420;-70
2022/05/03 06:53:23;;;;;;;6.28;2.88;;;;;;;23.84;28.74;98557.22;5012728;28;20480;-71
2022/05/03 06:55:50;;;;;;;6.47;3.13;;;;;;;22.72;30.21;98549.28;5012619;28;20076;-75
2022/05/03 06:58:17;;;;;;;7.47;4.07;;;;;;;23.16;29.69;98545.88;5012943;28;20420;-75
2022/05/03 07:00:44;;;;;;;6.43;2.92;;;;;;;25.38;27.15;98528.41;5013128;28;20042;-75
2022/05/03 07:03:12;;;;;;;10.55;3.72;;;;;;;26.36;25.38;98533.59;5013073;28;20124;-76
2022/05/03 07:05:40;;;;;;;8.25;3.10;;;;;;;27.03;24.50;98526.16;5013096;28;20425;-75
2022/05/03 07:08:10;;;;;;;38.08;18.25;;;;;;;27.01;24.62;98525.03;5016766;28;20136;-75
2022/05/03 07:10:39;;;;;;;6.07;3.00;;;;;;;27.39;24.37;98514.94;5016163;28;20042;-75
2022/05/03 07:13:12;;;;;;;139.23;57.08;;;;;;;29.41;22.29;98517.72;5017946;28;20262;-75
2022/05/03 07:15:39;;;;;;;8.95;4.43;;;;;;;31.91;19.80;98504.19;5016873;28;20074;-75
2022/05/03 07:23:37;;;;;;;5.10;2.90;;;;;;;35.99;15.59;98507.63;5017267;28;20042;-75
2022/05/03 07:26:05;;;;;;;5.15;3.22;;;;;;;31.61;18.89;98498.47;5017155;28;20100;-75
2022/05/03 07:28:31;;;;;;;4.05;2.75;;;;;;;27.55;23.12;98496.72;5016556;28;20421;-75
2022/05/03 07:30:58;;;;;;;5.32;3.08;;;;;;;27.06;23.36;98498.72;5016813;28;20045;-76
2022/05/03 07:33:25;;;;;;;13.52;3.20;;;;;;;25.35;25.53;98495.97;5016739;28;20140;-75
2022/05/03 07:35:58;;;;;;;5.97;3.13;;;;;;;25.41;25.46;98488.44;5016639;28;20054;-75
2022/05/03 07:38:25;;;;;;;5.97;2.85;;;;;;;25.73;25.01;98493.84;5016419;28;20144;-76
2022/05/03 07:40:51;;;;;;;5.65;2.70;;;;;;;24.74;25.61;98495.44;5016578;28;20042;-75
2022/05/03 07:43:18;;;;;;;5.57;2.65;;;;;;;23.23;27.63;98503.13;5016249;28;20501;-75
2022/05/03 07:45:45;;;;;;;6.88;3.10;;;;;;;21.89;29.28;98489.41;5016364;28;20046;-75
2022/05/03 07:48:12;;;;;;;6.55;3.50;;;;;;;21.81;29.70;98493.59;5015289;28;20058;-75
2022/05/03 07:50:39;;;;;;;8.60;5.18;;;;;;;22.83;28.20;98487.44;5014618;28;20050;-74
2022/05/03 07:53:06;;;;;;;7.32;3.05;;;;;;;21.92;29.45;98477.22;5016596;28;20054;-74
2022/05/03 07:55:33;;;;;;;9.82;3.22;;;;;;;21.23;30.30;98486.53;5016355;28;20064;-75
2022/05/03 07:58:00;;;;;;;10.85;3.33;;;;;;;20.56;31.13;98469.75;5016439;28;20058;-76
2022/05/03 08:00:27;;;;;;;7.03;3.10;;;;;;;20.07;31.84;98476.78;5016280;28;20081;-75
2022/05/03 08:02:54;;;;;;;5.20;2.65;;;;;;;19.69;32.15;98490.09;5014865;28;20100;-75
2022/05/03 08:05:21;;;;;;;8.80;2.67;;;;;;;19.47;31.86;98488.72;5016399;28;20054;-75
2022/05/03 08:07:48;;;;;;;7.07;2.70;;;;;;;20.59;29.35;98474.53;5015729;28;20088;-75
2022/05/03 08:10:15;;;;;;;5.75;2.78;;;;;;;21.59;27.77;98470.53;5015885;28;20479;-75
2022/05/03 08:12:43;;;;;;;4.63;2.33;;;;;;;25.70;23.05;98460.59;5016315;28;20049;-74
2022/05/03 08:15:10;;;;;;;5.93;2.25;;;;;;;28.92;19.57;98448.44;5014506;28;20057;-75
2022/05/03 08:17:37;;;;;;;4.82;2.47;;;;;;;28.41;19.86;98447.59;5015135;28;20053;-71
2022/05/03 08:20:05;;;;;;;4.13;2.17;;;;;;;26.01;22.10;98452.97;5015250;28;20096;-72
2022/05/03 08:22:33;;;;;;;3.47;2.05;;;;;;;23.89;24.03;98453.59;4998681;28;20448;-70
2022/05/03 08:25:00;;;;;;;6.43;2.03;;;;;;;22.16;25.49;98454.09;5015072;28;20501;-71
2022/05/03 08:27:30;;;;;;;4.75;2.00;;;;;;;20.80;26.77;98460.91;5015603;28;20084;-75
2022/05/03 08:29:59;;;;;;;5.20;2.08;;;;;;;20.04;27.61;98454.25;5015318;28;20065;-75
2022/05/03 08:32:26;;;;;;;5.88;2.50;;;;;;;20.55;27.11;98452.00;5015651;28;20112;-74
2022/05/03 08:34:52;;;;;;;6.15;2.60;;;;;;;24.95;22.59;98449.25;5015546;28;20060;-75
2022/05/03 08:42:52;;;;;;;9.38;2.28;;;;;;;26.35;19.74;98450.06;5015323;28;20068;-75
2022/05/03 08:45:20;;;;;;;6.85;2.30;;;;;;;25.47;20.68;98438.19;5014824;28;20049;-75
2022/05/03 08:47:48;;;;;;;9.07;2.40;;;;;;;27.87;18.24;98445.56;5015364;28;20078;-75
2022/05/03 08:50:19;;;;;;;4.75;2.72;;;;;;;32.82;14.46;98446.66;5014920;28;20073;-75
2022/05/03 08:53:09;;;;;;;2.88;1.98;;;;;;;35.62;12.02;98431.91;5014851;28;20046;-75
2022/05/03 08:55:41;;;;;;;4.93;2.38;;;;;;;31.28;14.64;98428.97;5014845;28;20139;-75
2022/05/03 08:58:08;;;;;;;7.05;2.38;;;;;;;27.88;17.40;98429.16;5014831;28;20428;-75
2022/05/03 09:00:36;;;;;;;4.13;2.10;;;;;;;28.92;16.72;98430.50;5014923;28;20408;-75
2022/05/03 09:03:03;;;;;;;4.15;2.00;;;;;;;26.47;18.41;98414.97;5014594;28;20085;-75
2022/05/03 09:05:30;;;;;;;6.72;2.25;;;;;;;24.86;19.50;98418.63;5014088;28;20057;-76
2022/05/03 09:07:59;;;;;;;11.95;2.55;;;;;;;23.25;20.89;98423.25;5014976;28;20054;-74
2022/05/03 09:10:28;;;;;;;5.82;2.70;;;;;;;25.20;19.30;98408.59;5014632;28;20132;-75
2022/05/03 09:13:11;;;;;;;12.27;2.67;;;;;;;31.91;14.16;98401.38;5014734;28;20056;-75
2022/05/03 09:15:38;;;;;;;4.25;2.22;;;;;;;35.25;11.62;98396.66;5015005;28;20054;-74
2022/05/03 09:18:05;;;;;;;5.95;2.38;;;;;;;34.12;12.16;98397.50;5014799;28;20064;-75
2022/05/03 09:26:33;;;;;;;7.95;2.65;;;;;;;24.12;20.07;98396.53;5014713;28;20065;-75
2022/05/03 09:29:01;;;;;;;8.57;2.13;;;;;;;27.39;17.05;98385.59;5013397;28;20529;-75
2022/05/03 09:31:43;;;;;;;15.07;2.40;;;;;;;29.51;15.51;98378.78;5013987;28;20080;-75
2022/05/03 09:34:19;;;;;;;9.05;1.90;;;;;;;30.37;14.06;98364.44;5014032;28;20115;-74
2022/05/03 09:36:48;;;;;;;8.57;1.90;;;;;;;27.24;16.78;98379.66;5014430;28;20049;-75
2022/05/03 09:39:41;;;;;;;12.02;2.42;;;;;;;25.48;18.87;98370.63;5014726;28;20375;-74
2022/05/03 09:42:15;;;;;;;2.63;1.80;;;;;;;24.73;19.72;98378.03;5014362;28;20390;-75
2022/05/03 09:44:51;;;;;;;7.28;2.15;;;;;;;24.12;20.45;98368.13;5013776;28;20089;-74
2022/05/03 09:47:20;;;;;;;8.88;2.10;;;;;;;23.62;20.92;98365.09;5014451;28;20073;-76
2022/05/03 09:49:48;;;;;;;3.63;1.88;;;;;;;23.05;21.54;98363.75;5013930;28;20053;-75
2022/05/03 09:52:27;;;;;;;7.18;2.50;;;;;;;22.30;22.22;98346.13;5013853;28;20100;-75
2022/05/03 09:55:03;;;;;;;5.63;2.20;;;;;;;21.78;22.84;98353.72;5014063;28;20119;-75
2022/05/03 09:57:33;;;;;;;9.57;2.13;;;;;;;21.69;23.15;98340.13;5014153;28;20060;-75
2022/05/03 10:00:02;;;;;;;6.28;1.73;;;;;;;21.55;23.03;98340.41;5013784;28;20046;-75
2022/05/03 10:02:30;;;;;;;3.58;1.73;;;;;;;21.30;23.24;98353.44;5013896;28;20049;-75
2022/05/03 10:04:58;;;;;;;5.50;2.03;;;;;;;21.07;23.72;98353.44;5013509;28;20125;-75
2022/05/03 10:07:26;;;;;;;6.57;2.13;;;;;;;21.13;23.73;98357.38;5013604;28;20077;-74
2022/05/03 10:09:54;;;;;;;8.43;1.85;;;;;;;20.95;23.69;98345.59;5014210;28;20042;-74
2022/05/03 10:12:21;;;;;;;13.40;2.50;;;;;;;20.42;24.03;98343.59;5013988;28;20053;-76
2022/05/03 10:14:49;;;;;;;7.82;2.13;;;;;;;20.17;24.65;98346.00;5014224;28;20058;-73
2022/05/03 10:20:40;;;;;;;2.70;1.67;;;;;;;20.37;24.34;98346.13;5013060;28;20137;-71
2022/05/03 10:23:28;;;;;;;10.37;2.27;;;;;;;20.30;25.24;98347.00;5013009;28;20053;-71
2022/05/03 10:26:09;;;;;;;3.72;2.05;;;;;;;20.19;25.14;98331.47;5013012;28;20054;-71
2022/05/03 10:29:00;;;;;;;4.28;2.33;;;;;;;20.12;25.35;98328.69;5013187;28;20555;-72
2022/05/03 10:31:28;;;;;;;3.88;1.98;;;;;;;20.11;25.42;98327.09;5013223;28;20396;-71
2022/05/03 10:33:56;;;;;;;5.30;2.05;;;;;;;20.09;25.88;98315.41;5013130;28;20049;-71
2022/05/03 10:36:32;;;;;;;10.80;1.92;;;;;;;19.91;25.82;98316.50;5012749;28;20163;-72
2022/05/03 10:39:17;;;;;;;9.13;1.70;;;;;;;20.01;25.82;98320.38;5013483;28;20064;-71
2022/05/03 10:41:53;;;;;;;3.58;1.80;;;;;;;19.85;26.02;98318.19;5013217;28;20056;-71
2022/05/03 10:44:43;;;;;;;4.25;1.58;;;;;;;19.91;26.05;98324.16;5012006;28;20386;-71
2022/05/03 10:47:19;;;;;;;7.25;1.65;;;;;;;20.07;25.88;98323.53;5012828;28;20136;-72
2022/05/03 10:50:19;;;;;;;6.72;1.90;;;;;;;20.17;25.57;98303.66;5012862;28;20137;-72
2022/05/03 10:52:56;;;;;;;9.05;2.15;;;;;;;20.09;25.72;98306.94;5012679;28;20060;-71
2022/05/03 10:55:24;;;;;;;2.85;1.75;;;;;;;19.93;26.00;98301.94;5012956;28;20437;-71
2022/05/03 10:58:18;;;;;;;6.15;2.20;;;;;;;19.98;25.64;98307.09;5012777;28;20054;-72
2022/05/03 11:01:04;;;;;;;9.07;2.35;;;;;;;20.02;25.51;98305.06;5012821;28;20064;-71
2022/05/03 11:03:36;;;;;;;5.40;2.30;;;;;;;19.85;25.52;98292.78;5012963;28;20050;-76
2022/05/03 11:06:17;;;;;;;3.95;1.92;;;;;;;19.87;25.41;98298.78;5011786;28;20104;-76
2022/05/03 11:09:08;;;;;;;8.43;2.40;;;;;;;19.71;25.64;98295.78;5013144;28;20053;-75
2022/05/03 11:11:44;;;;;;;6.70;2.10;;;;;;;19.63;25.92;98288.63;5012587;28;20405;-74
2022/05/03 11:14:24;;;;;;;3.53;1.70;;;;;;;19.48;25.94;98286.44;5012884;28;20050;-75
2022/05/03 11:17:08;;;;;;;7.28;2.15;;;;;;;19.61;25.82;98302.38;5012762;28;20552;-76
2022/05/03 11:19:55;;;;;;;9.35;1.95;;;;;;;19.65;25.40;98289.00;5011177;28;20062;-76
2022/05/03 11:22:25;;;;;;;5.40;2.10;;;;;;;19.55;25.57;98295.59;5012724;28;20064;-75
2022/05/03 11:25:03;;;;;;;6.20;1.92;;;;;;;19.40;26.14;98280.09;5012867;28;20555;-75
2022/05/03 11:27:31;;;;;;;4.75;2.05;;;;;;;19.30;26.24;98281.00;5012691;28;20084;-74
2022/05/03 11:30:01;;;;;;;4.95;1.88;;;;;;;19.36;25.94;98284.94;5012130;28;20045;-75
2022/05/03 11:32:37;;;;;;;3.25;1.63;;;;;;;19.23;25.90;98283.88;5013290;28;20440;-75
2022/05/03 11:35:24;;;;;;;5.07;1.73;;;;;;;19.19;25.97;98280.28;5012439;28;20481;-76
2022/05/03 11:37:57;;;;;;;6.70;1.60;;;;;;;19.19;25.92;98280.28;5013144;28;20451;-75
2022/05/03 11:40:28;;;;;;;5.82;1.70;;;;;;;19.05;25.67;98274.00;5012463;28;20085;-75
2022/05/03 11:42:55;;;;;;;3.05;1.30;;;;;;;18.88;25.77;98270.16;5012967;28;20132;-75
2022/05/03 11:45:22;;;;;;;7.57;2.08;;;;;;;18.98;25.77;98269.22;5013001;28;20137;-75
2022/05/03 11:47:50;;;;;;;4.63;1.50;;;;;;;19.04;25.75;98267.56;5012524;28;20049;-75
2022/05/03 11:56:02;;;;;;;7.20;1.90;;;;;;;18.55;26.78;98251.16;5016118;28;20530;-74
2022/05/03 11:58:31;;;;;;;3.97;1.95;;;;;;;18.71;26.47;98242.97;5016433;28;20590;-74
2022/05/03 12:00:58;;;;;;;9.38;2.05;;;;;;;18.72;26.45;98236.13;5014425;28;20048;-74
2022/05/03 12:03:25;;;;;;;4.57;1.95;;;;;;;18.60;26.51;98239.47;5016292;28;20050;-75
2022/05/03 12:06:01;;;;;;;5.78;1.70;;;;;;;18.74;26.09;98244.16;5015332;28;20460;-77
2022/05/03 12:08:29;;;;;;;4.60;1.73;;;;;;;19.03;25.89;98234.16;5015591;28;20057;-75
2022/05/03 12:10:57;;;;;;;6.55;2.38;;;;;;;19.14;25.82;98232.81;5016337;28;20544;-75
2022/05/03 12:13:24;;;;;;;4.85;1.90;;;;;;;18.94;26.26;98234.66;5014389;28;20064;-76
2022/05/03 12:15:57;;;;;;;5.13;1.60;;;;;;;18.86;25.92;98233.13;5015941;28;20050;-74
2022/05/03 12:18:38;;;;;;;10.48;2.05;;;;;;;18.78;26.25;98226.00;5015847;28;20080;-74
2022/05/03 12:21:11;;;;;;;11.07;1.98;;;;;;;18.72;26.22;98221.22;5014680;28;20100;-73
2022/05/03 12:23:44;;;;;;;5.80;2.53;;;;;;;18.49;26.28;98241.56;5014535;28;20045;-75
2022/05/03 12:26:17;;;;;;;5.72;1.90;;;;;;;18.52;25.97;98243.56;5015294;28;20144;-74
2022/05/03 12:28:50;;;;;;;4.50;1.73;;;;;;;18.38;25.79;98229.59;5015527;28;20390;-77
2022/05/03 12:31:20;;;;;;;3.30;1.60;;;;;;;18.35;25.83;98224.75;4997993;28;20528;-64
2022/05/03 12:33:59;;;;;;;5.28;1.60;;;;;;;18.45;25.71;98234.38;5014090;28;20045;-65